createdAt,value
2022-11-20T00:00:23.413Z,97631.34
2022-11-20T00:02:50.044Z,97628.94
2022-11-20T00:05:17.448Z,97626.56
2022-11-20T00:07:44.810Z,97631.72
2022-11-20T00:10:11.560Z,97629.00
2022-11-20T00:12:38.362Z,97634.88
2022-11-20T00:15:05.592Z,97627.56
2022-11-20T00:17:32.228Z,97636.69
2022-11-20T00:19:58.924Z,97629.94
2022-11-20T00:22:25.659Z,97620.72
2022-11-20T00:24:52.339Z,97637.38
2022-11-20T00:27:19.824Z,97615.97
2022-11-20T00:29:46.514Z,97629.53
2022-11-20T00:32:13.202Z,97633.00
2022-11-20T00:34:39.986Z,97632.44
2022-11-20T00:37:06.577Z,97641.50
2022-11-20T00:39:33.810Z,97623.19
2022-11-20T00:42:00.945Z,97633.00
2022-11-20T00:44:27.650Z,97625.31
2022-11-20T00:46:54.658Z,97628.56
2022-11-20T00:49:21.445Z,97630.56
2022-11-20T00:51:48.179Z,97641.03
2022-11-20T00:54:14.788Z,97627.63
2022-11-20T00:56:41.611Z,97631.19
2022-11-20T00:59:10.263Z,97632.56
2022-11-20T01:01:37.541Z,97622.19
2022-11-20T01:04:04.276Z,97625.31
2022-11-20T01:06:33.559Z,97627.00
2022-11-20T01:09:06.075Z,97644.41
2022-11-20T01:11:36.343Z,97640.19
2022-11-20T01:14:04.680Z,97633.63
2022-11-20T01:16:34.520Z,97634.69
2022-11-20T01:19:03.488Z,97623.97
2022-11-20T01:21:36.483Z,97637.56
2022-11-20T01:24:03.740Z,97637.81
2022-11-20T01:26:32.827Z,97633.00
2022-11-20T01:29:01.067Z,97645.22
2022-11-20T01:31:29.234Z,97646.81
2022-11-20T01:34:03.702Z,97641.25
2022-11-20T01:36:32.317Z,97641.88
2022-11-20T01:39:01.997Z,97634.34
2022-11-20T01:41:49.720Z,97630.38
2022-11-20T01:44:21.329Z,97628.91
2022-11-20T01:46:58.073Z,97627.63
2022-11-20T01:49:30.296Z,97630.63
2022-11-20T01:52:05.847Z,97637.97
2022-11-20T01:54:40.737Z,97620.53
2022-11-20T01:57:11.231Z,97635.13
2022-11-20T01:59:43.443Z,97615.28
2022-11-20T02:02:10.355Z,97614.19
2022-11-20T02:04:39.911Z,97627.88
2022-11-20T02:07:06.681Z,97621.22
2022-11-20T02:09:33.280Z,97624.88
2022-11-20T02:12:00.426Z,97615.75
2022-11-20T02:14:27.525Z,97614.81
2022-11-20T02:16:56.043Z,97610.69
2022-11-20T02:19:30.044Z,97617.00
2022-11-20T02:21:56.765Z,97605.84
2022-11-20T02:24:24.232Z,97598.00
2022-11-20T02:26:55.496Z,97605.28
2022-11-20T02:29:30.864Z,97579.41
2022-11-20T02:31:59.936Z,97584.63
2022-11-20T02:34:26.528Z,97588.00
2022-11-20T02:36:54.226Z,97588.00
2022-11-20T02:39:23.048Z,97588.66
2022-11-20T02:41:49.950Z,97585.31
2022-11-20T02:44:16.854Z,97595.00
2022-11-20T02:46:43.368Z,97593.88
2022-11-20T02:49:10.015Z,97590.84
2022-11-20T02:51:36.719Z,97590.34
2022-11-20T02:54:04.035Z,97597.94
2022-11-20T02:56:32.634Z,97597.09
2022-11-20T02:59:00.584Z,97592.03
2022-11-20T03:01:27.954Z,97590.50
2022-11-20T03:03:55.825Z,97581.66
2022-11-20T03:06:22.695Z,97578.13
2022-11-20T03:08:49.441Z,97585.63
2022-11-20T03:11:16.294Z,97575.44
2022-11-20T03:13:43.266Z,97577.69
2022-11-20T03:16:21.729Z,97575.56
2022-11-20T03:18:48.863Z,97561.41
2022-11-20T03:21:18.300Z,97564.75
2022-11-20T03:23:45.057Z,97571.28
2022-11-20T03:26:17.377Z,97574.16
2022-11-20T03:28:53.269Z,97574.16
2022-11-20T03:31:23.087Z,97567.41
2022-11-20T03:33:49.965Z,97576.78
2022-11-20T03:36:18.421Z,97577.63
2022-11-20T03:38:45.171Z,97581.66
2022-11-20T03:41:14.599Z,97585.03
2022-11-20T03:43:41.405Z,97585.03
2022-11-20T03:46:08.690Z,97589.50
2022-11-20T03:48:35.721Z,97595.59
2022-11-20T03:51:12.716Z,97596.44
2022-11-20T03:53:46.009Z,97580.91
2022-11-20T03:56:17.650Z,97596.38
2022-11-20T03:58:44.723Z,97595.09
2022-11-20T04:01:15.874Z,97599.03
2022-11-20T04:03:43.980Z,97589.19
2022-11-20T04:06:13.985Z,97600.63
2022-11-20T04:08:42.864Z,97606.09
2022-11-20T04:11:21.506Z,97599.88
2022-11-20T04:13:51.293Z,97605.50
2022-11-20T04:16:18.968Z,97591.94
2022-11-20T04:18:45.751Z,97603.25
2022-11-20T04:21:13.570Z,97603.69
2022-11-20T04:23:40.316Z,97596.69
2022-11-20T04:26:11.554Z,97608.59
2022-11-20T04:28:39.486Z,97596.09
2022-11-20T04:31:09.123Z,97589.06
2022-11-20T04:33:37.362Z,97589.06
2022-11-20T04:36:11.391Z,97593.72
2022-11-20T04:38:38.703Z,97585.81
2022-11-20T04:41:08.450Z,97585.97
2022-11-20T04:43:35.576Z,97594.38
2022-11-20T04:46:02.718Z,97592.03
2022-11-20T04:48:30.229Z,97583.91
2022-11-20T04:50:57.849Z,97583.88
2022-11-20T04:53:29.957Z,97583.53
2022-11-20T04:56:05.336Z,97571.00
2022-11-20T04:58:32.651Z,97562.50
2022-11-20T05:01:07.916Z,97561.50
2022-11-20T05:03:38.454Z,97569.44
2022-11-20T05:06:09.154Z,97556.34
2022-11-20T05:08:35.938Z,97564.19
2022-11-20T05:11:09.081Z,97559.38
2022-11-20T05:13:36.421Z,97549.50
2022-11-20T05:16:05.065Z,97564.16
2022-11-20T05:18:32.747Z,97558.34
2022-11-20T05:20:59.425Z,97561.72
2022-11-20T05:23:28.679Z,97564.88
2022-11-20T05:25:59.056Z,97560.03
2022-11-20T05:28:28.119Z,97568.91
2022-11-20T05:30:55.018Z,97566.31
2022-11-20T05:33:22.059Z,97568.63
2022-11-20T05:35:49.837Z,97554.47
2022-11-20T05:38:16.887Z,97558.59
2022-11-20T05:40:43.733Z,97545.09
2022-11-20T05:43:10.352Z,97550.34
2022-11-20T05:45:37.029Z,97551.34
2022-11-20T05:48:03.900Z,97550.75
2022-11-20T05:50:30.552Z,97545.66
2022-11-20T05:53:00.991Z,97550.56
2022-11-20T05:55:29.451Z,97563.53
2022-11-20T05:57:56.160Z,97562.88
2022-11-20T06:00:23.408Z,97565.00
2022-11-20T06:02:50.284Z,97578.31
2022-11-20T06:05:16.900Z,97569.38
2022-11-20T06:07:43.923Z,97565.56
2022-11-20T06:10:18.205Z,97512.09
2022-11-20T06:12:44.967Z,97517.63
2022-11-20T06:15:11.679Z,97568.66
2022-11-20T06:18:04.578Z,97563.28
2022-11-20T06:20:31.307Z,97532.31
2022-11-20T06:23:04.662Z,97559.69
2022-11-20T06:25:31.404Z,97530.97
2022-11-20T06:27:58.354Z,97527.19
2022-11-20T06:30:25.113Z,97528.28
2022-11-20T06:32:52.086Z,97554.84
2022-11-20T06:35:18.734Z,97553.31
2022-11-20T06:37:45.500Z,97555.38
2022-11-20T06:40:12.845Z,97543.09
2022-11-20T06:42:39.562Z,97552.97
2022-11-20T06:45:07.246Z,97554.06
2022-11-20T06:47:34.426Z,97557.00
2022-11-20T06:50:01.662Z,97537.59
2022-11-20T06:52:31.326Z,97513.50
2022-11-20T06:54:58.301Z,97555.31
2022-11-20T06:57:24.974Z,97572.16
2022-11-20T06:59:54.854Z,97535.38
2022-11-20T07:02:21.773Z,97541.34
2022-11-20T07:04:48.956Z,97534.69
2022-11-20T07:07:16.048Z,97512.50
2022-11-20T07:09:42.725Z,97495.16
2022-11-20T07:12:09.453Z,97524.41
2022-11-20T07:14:36.381Z,97527.50
2022-11-20T07:17:04.148Z,97541.66
2022-11-20T07:19:30.910Z,97513.47
2022-11-20T07:21:57.757Z,97525.69
2022-11-20T07:24:24.296Z,97539.91
2022-11-20T07:26:51.386Z,97522.88
2022-11-20T07:29:18.522Z,97539.34
2022-11-20T07:31:45.214Z,97513.72
2022-11-20T07:34:11.858Z,97522.91
2022-11-20T07:36:38.567Z,97536.00
2022-11-20T07:39:05.311Z,97514.31
2022-11-20T07:41:32.504Z,97539.34
2022-11-20T07:43:59.525Z,97543.09
2022-11-20T07:46:26.278Z,97534.13
2022-11-20T07:48:53.381Z,97527.81
2022-11-20T07:51:20.403Z,97509.44
2022-11-20T07:53:54.707Z,97509.00
2022-11-20T07:56:21.477Z,97524.94
2022-11-20T07:58:48.256Z,97538.38
2022-11-20T08:01:14.967Z,97548.22
2022-11-20T08:03:41.734Z,97550.97
2022-11-20T08:06:08.906Z,97552.38
2022-11-20T08:08:40.020Z,97546.34
2022-11-20T08:11:28.066Z,97547.19
2022-11-20T08:14:13.231Z,97526.25
2022-11-20T08:16:41.503Z,97550.47
2022-11-20T08:19:08.792Z,97552.28
2022-11-20T08:21:38.369Z,97527.47
2022-11-20T08:24:06.073Z,97531.84
2022-11-20T08:26:32.866Z,97531.47
2022-11-20T08:29:00.033Z,97533.78
2022-11-20T08:31:30.860Z,97535.47
2022-11-20T08:33:58.017Z,97511.13
2022-11-20T08:36:25.690Z,97542.66
2022-11-20T08:38:54.820Z,97536.03
2022-11-20T08:41:26.778Z,97518.44
2022-11-20T08:44:08.446Z,97519.75
2022-11-20T08:46:38.749Z,97503.56
2022-11-20T08:49:08.854Z,97503.59
2022-11-20T08:51:36.912Z,97503.59
2022-11-20T08:54:04.232Z,97482.53
2022-11-20T08:56:31.243Z,97478.31
2022-11-20T09:01:44.980Z,97497.50
2022-11-20T09:04:12.759Z,97495.13
2022-11-20T09:06:39.515Z,97496.75
2022-11-20T09:09:07.199Z,97497.31
2022-11-20T09:11:35.400Z,97492.91
2022-11-20T09:14:03.804Z,97499.81
2022-11-20T09:16:30.673Z,97504.03
2022-11-20T09:19:28.184Z,97493.13
2022-11-20T09:21:43.979Z,97469.88
2022-11-20T09:24:10.794Z,97514.69
2022-11-20T09:26:37.433Z,97513.69
2022-11-20T09:29:04.389Z,97516.03
2022-11-20T09:31:31.522Z,97508.22
2022-11-20T09:33:58.397Z,97507.28
2022-11-20T09:36:24.897Z,97511.88
2022-11-20T09:38:51.528Z,97514.41
2022-11-20T09:41:37.400Z,97517.91
2022-11-20T09:44:32.151Z,97513.03
2022-11-20T09:47:17.514Z,97491.03
2022-11-20T09:50:08.975Z,97493.97
2022-11-20T09:52:35.702Z,97493.19
2022-11-20T09:55:05.194Z,97483.78
2022-11-20T09:57:42.441Z,97486.13
2022-11-20T10:00:14.400Z,97476.78
2022-11-20T10:03:00.770Z,97463.03
2022-11-20T10:05:46.071Z,97464.25
2022-11-20T10:08:31.341Z,97470.50
2022-11-20T10:11:09.308Z,97456.56
2022-11-20T10:13:46.790Z,97465.09
2022-11-20T10:16:29.264Z,97462.44
2022-11-20T10:19:17.481Z,97464.63
2022-11-20T10:21:53.254Z,97457.97
2022-11-20T10:24:26.218Z,97445.44
2022-11-20T10:27:08.087Z,97438.50
2022-11-20T10:29:37.887Z,97451.81
2022-11-20T10:32:12.625Z,97470.75
2022-11-20T10:35:05.930Z,97471.75
2022-11-20T10:37:37.095Z,97450.41
2022-11-20T10:40:27.453Z,97455.16
2022-11-20T10:44:14.920Z,97430.09
2022-11-20T10:47:19.981Z,97423.06
2022-11-20T10:49:53.171Z,97375.69
2022-11-20T10:52:44.083Z,97425.53
2022-11-20T10:55:40.094Z,97435.34
2022-11-20T10:58:54.955Z,97431.66
2022-11-20T11:01:25.524Z,97445.88
2022-11-20T11:03:54.424Z,97430.00
2022-11-20T11:06:26.034Z,97449.25
2022-11-20T11:08:59.570Z,97432.25
2022-11-20T11:11:32.014Z,97433.56
2022-11-20T11:14:13.686Z,97414.69
2022-11-20T11:16:58.771Z,97421.28
2022-11-20T11:19:26.496Z,97402.44
2022-11-20T11:21:57.934Z,97408.16
2022-11-20T11:24:41.820Z,97408.22
2022-11-20T11:27:18.824Z,97410.47
2022-11-20T11:29:47.071Z,97409.78
2022-11-20T11:32:25.626Z,97394.22
2022-11-20T11:35:04.173Z,97394.84
2022-11-20T11:37:36.844Z,97388.25
2022-11-20T11:43:00.658Z,97386.81
2022-11-20T11:45:29.662Z,97386.81
2022-11-20T11:47:59.786Z,97394.47
2022-11-20T11:50:29.333Z,97384.34
2022-11-20T11:53:15.728Z,97397.28
2022-11-20T11:55:50.871Z,97404.13
2022-11-20T11:58:29.182Z,97407.69
2022-11-20T12:01:02.969Z,97400.97
2022-11-20T12:03:39.344Z,97388.34
2022-11-20T12:06:21.943Z,97398.28
2022-11-20T12:09:17.173Z,97377.53
2022-11-20T12:11:56.157Z,97369.69
2022-11-20T12:14:35.275Z,97374.28
2022-11-20T12:17:03.807Z,97380.19
2022-11-20T12:19:34.469Z,97378.50
2022-11-20T12:22:24.930Z,97377.88
2022-11-20T12:24:57.420Z,97361.84
2022-11-20T12:27:42.619Z,97359.69
2022-11-20T12:30:12.608Z,97354.41
2022-11-20T12:33:07.902Z,97364.16
2022-11-20T12:35:44.285Z,97358.97
2022-11-20T12:38:20.093Z,97359.50
2022-11-20T12:41:55.989Z,97367.50
2022-11-20T12:45:07.589Z,97362.81
2022-11-20T12:48:03.618Z,97362.91
2022-11-20T12:51:13.521Z,97339.09
2022-11-20T12:54:11.916Z,97322.59
2022-11-20T12:57:10.636Z,97340.13
2022-11-20T13:00:22.223Z,97344.19
2022-11-20T13:03:20.382Z,97335.19
2022-11-20T13:06:02.327Z,97325.41
2022-11-20T13:08:39.582Z,97325.78
2022-11-20T13:11:18.557Z,97327.59
2022-11-20T13:14:16.220Z,97313.84
2022-11-20T13:17:09.424Z,97317.59
2022-11-20T13:19:36.352Z,97315.84
2022-11-20T13:22:03.071Z,97317.03
2022-11-20T13:24:32.414Z,97327.66
2022-11-20T13:27:05.078Z,97326.53
2022-11-20T13:29:32.797Z,97318.75
2022-11-20T13:32:17.669Z,97310.56
2022-11-20T13:34:57.656Z,97310.75
2022-11-20T13:37:36.450Z,97303.41
2022-11-20T13:40:13.068Z,97291.97
2022-11-20T13:43:08.348Z,97289.28
2022-11-20T13:45:35.258Z,97293.22
2022-11-20T13:48:06.416Z,97292.75
2022-11-20T13:50:41.210Z,97302.53
2022-11-20T13:53:35.939Z,97300.88
2022-11-20T13:56:20.142Z,97289.16
2022-11-20T13:59:14.831Z,97291.97
2022-11-20T14:01:46.369Z,97306.25
2022-11-20T14:04:21.407Z,97314.09
2022-11-20T14:06:50.192Z,97307.41
2022-11-20T14:09:33.272Z,97316.44
2022-11-20T14:12:01.227Z,97314.31
2022-11-20T14:14:37.510Z,97298.09
2022-11-20T14:17:26.292Z,97285.97
2022-11-20T14:19:54.323Z,97289.59
2022-11-20T14:22:24.600Z,97284.44
2022-11-20T14:25:13.268Z,97285.56
2022-11-20T14:27:42.195Z,97283.00
2022-11-20T14:30:16.850Z,97277.16
2022-11-20T14:32:45.970Z,97284.16
2022-11-20T14:35:35.496Z,97284.03
2022-11-20T14:38:04.359Z,97289.41
2022-11-20T14:40:34.411Z,97298.06
2022-11-20T14:43:01.168Z,97293.97
2022-11-20T14:45:28.609Z,97297.50
2022-11-20T14:47:58.023Z,97300.28
2022-11-20T14:50:27.959Z,97294.25
2022-11-20T14:52:58.066Z,97303.03
2022-11-20T14:55:28.449Z,97301.13
2022-11-20T14:58:05.067Z,97299.16
2022-11-20T15:00:33.412Z,97297.44
2022-11-20T15:03:00.461Z,97295.53
2022-11-20T15:05:47.672Z,97298.34
2022-11-20T15:08:15.517Z,97303.25
2022-11-20T15:10:50.570Z,97314.22
2022-11-20T15:13:23.728Z,97314.78
2022-11-20T15:15:53.364Z,97318.88
2022-11-20T15:18:23.828Z,97309.75
2022-11-20T15:20:51.185Z,97302.06
2022-11-20T15:23:19.775Z,97296.47
2022-11-20T15:25:48.306Z,97294.81
2022-11-20T15:28:24.005Z,97291.44
2022-11-20T15:30:51.100Z,97283.13
2022-11-20T15:33:18.777Z,97295.84
2022-11-20T15:35:46.537Z,97301.75
2022-11-20T15:38:13.368Z,97304.53
2022-11-20T15:40:40.106Z,97308.03
2022-11-20T15:43:12.863Z,97295.94
2022-11-20T15:45:53.717Z,97291.72
2022-11-20T15:48:24.460Z,97301.13
2022-11-20T15:50:57.200Z,97300.84
2022-11-20T15:53:28.766Z,97299.84
2022-11-20T15:55:55.862Z,97284.16
2022-11-20T15:58:23.978Z,97297.13
2022-11-20T16:00:50.742Z,97289.13
2022-11-20T16:03:17.522Z,97299.72
2022-11-20T16:05:46.053Z,97290.44
2022-11-20T16:08:13.218Z,97283.16
2022-11-20T16:10:47.876Z,97259.22
2022-11-20T16:13:35.646Z,97269.84
2022-11-20T16:16:06.550Z,97294.78
2022-11-20T16:18:33.538Z,97286.88
2022-11-20T16:21:00.291Z,97285.63
2022-11-20T16:23:26.935Z,97288.78
2022-11-20T16:25:53.571Z,97285.53
2022-11-20T16:28:20.650Z,97276.41
2022-11-20T16:30:47.780Z,97281.03
2022-11-20T16:33:16.689Z,97285.72
2022-11-20T16:35:43.828Z,97274.59
2022-11-20T16:38:10.662Z,97284.06
2022-11-20T16:40:37.414Z,97291.19
2022-11-20T16:43:10.642Z,97286.38
2022-11-20T16:45:46.435Z,97290.69
2022-11-20T16:48:15.313Z,97287.50
2022-11-20T16:50:52.417Z,97295.41
2022-11-20T16:53:20.518Z,97287.41
2022-11-20T16:55:47.986Z,97284.88
2022-11-20T16:58:15.735Z,97289.94
2022-11-20T17:00:46.862Z,97295.25
2022-11-20T17:03:19.481Z,97298.75
2022-11-20T17:05:46.220Z,97295.69
2022-11-20T17:08:12.918Z,97300.00
2022-11-20T17:10:39.602Z,97295.44
2022-11-20T17:13:06.285Z,97298.59
2022-11-20T17:15:32.940Z,97295.78
2022-11-20T17:17:59.974Z,97298.59
2022-11-20T17:20:26.617Z,97288.72
2022-11-20T17:22:53.232Z,97300.31
2022-11-20T17:25:20.702Z,97300.09
2022-11-20T17:27:47.446Z,97306.47
2022-11-20T17:30:14.266Z,97299.00
2022-11-20T17:32:45.637Z,97303.09
2022-11-20T17:35:12.528Z,97288.25
2022-11-20T17:37:39.385Z,97297.63
2022-11-20T17:40:06.835Z,97303.94
2022-11-20T17:42:37.034Z,97296.56
2022-11-20T17:45:04.729Z,97294.34
2022-11-20T17:47:31.513Z,97301.41
2022-11-20T17:49:58.153Z,97301.78
2022-11-20T17:52:25.594Z,97293.03
2022-11-20T17:54:55.827Z,97289.06
2022-11-20T17:57:42.344Z,97289.91
2022-11-20T18:00:10.996Z,97286.72
2022-11-20T18:02:37.616Z,97284.91
2022-11-20T18:05:04.732Z,97280.41
2022-11-20T18:07:31.480Z,97285.38
2022-11-20T18:09:58.046Z,97303.13
2022-11-20T18:12:25.911Z,97292.22
2022-11-20T18:14:52.755Z,97284.78
2022-11-20T18:17:22.736Z,97290.13
2022-11-20T18:20:14.324Z,97282.31
2022-11-20T18:22:38.196Z,97279.66
2022-11-20T18:25:05.333Z,97277.56
2022-11-20T18:27:32.300Z,97269.56
2022-11-20T18:29:59.552Z,97260.09
2022-11-20T18:32:26.415Z,97270.63
2022-11-20T18:34:53.304Z,97256.34
2022-11-20T18:37:19.985Z,97262.53
2022-11-20T18:39:46.904Z,97258.13
2022-11-20T18:42:34.342Z,97265.06
2022-11-20T18:45:02.386Z,97256.34
2022-11-20T18:47:34.081Z,97261.47
2022-11-20T18:50:01.553Z,97262.16
2022-11-20T18:52:31.040Z,97258.22
2022-11-20T18:54:57.678Z,97253.53
2022-11-20T18:57:26.762Z,97266.97
2022-11-20T18:59:55.097Z,97266.56
2022-11-20T19:02:22.744Z,97268.97
2022-11-20T19:04:49.559Z,97266.16
2022-11-20T19:07:16.775Z,97257.56
2022-11-20T19:09:48.727Z,97270.16
2022-11-20T19:12:16.578Z,97264.41
2022-11-20T19:14:43.287Z,97256.31
2022-11-20T19:17:11.476Z,97258.25
2022-11-20T19:19:38.459Z,97268.53
2022-11-20T19:22:05.524Z,97259.50
2022-11-20T19:24:32.243Z,97258.53
2022-11-20T19:26:59.090Z,97270.50
2022-11-20T19:29:27.076Z,97268.59
2022-11-20T19:31:54.004Z,97268.59
2022-11-20T19:34:22.155Z,97266.59
2022-11-20T19:36:48.943Z,97254.34
2022-11-20T19:39:15.842Z,97260.88
2022-11-20T19:41:43.334Z,97265.09
2022-11-20T19:44:13.975Z,97262.66
2022-11-20T19:46:41.825Z,97260.44
2022-11-20T19:49:11.874Z,97262.84
2022-11-20T19:51:45.843Z,97264.75
2022-11-20T19:54:13.411Z,97262.06
2022-11-20T19:56:40.333Z,97255.38
2022-11-20T19:59:06.906Z,97251.72
2022-11-20T20:01:35.308Z,97259.25
2022-11-20T20:04:03.678Z,97243.47
2022-11-20T20:06:32.517Z,97251.97
2022-11-20T20:09:10.419Z,97236.50
2022-11-20T20:11:37.534Z,97256.16
2022-11-20T20:14:07.528Z,97245.34
2022-11-20T20:16:35.345Z,97232.84
2022-11-20T20:19:03.705Z,97232.97
2022-11-20T20:21:34.508Z,97236.00
2022-11-20T20:24:01.458Z,97247.53
2022-11-20T20:26:30.757Z,97230.94
2022-11-20T20:29:00.837Z,97233.06
2022-11-20T20:31:39.516Z,97230.03
2022-11-20T20:34:06.632Z,97243.59
2022-11-20T20:36:34.815Z,97235.47
2022-11-20T20:39:03.664Z,97232.84
2022-11-20T20:41:31.120Z,97233.53
2022-11-20T20:44:16.661Z,97227.00
2022-11-20T20:46:43.851Z,97218.38
2022-11-20T20:49:10.552Z,97213.41
2022-11-20T20:51:37.292Z,97225.66
2022-11-20T20:54:04.745Z,97231.75
2022-11-20T20:56:31.584Z,97220.63
2022-11-20T20:58:58.187Z,97220.72
2022-11-20T21:01:29.666Z,97215.31
2022-11-20T21:03:57.453Z,97213.22
2022-11-20T21:06:24.599Z,97208.94
2022-11-20T21:08:51.637Z,97205.69
2022-11-20T21:11:20.275Z,97201.59
2022-11-20T21:13:47.865Z,97200.00
2022-11-20T21:16:17.338Z,97192.47
2022-11-20T21:18:44.073Z,97183.97
2022-11-20T21:21:32.410Z,97183.31
2022-11-20T21:23:59.399Z,97176.94
2022-11-20T21:26:26.585Z,97166.22
2022-11-20T21:28:53.798Z,97170.06
2022-11-20T21:31:23.546Z,97166.28
2022-11-20T21:33:53.467Z,97157.28
2022-11-20T21:36:22.931Z,97155.84
2022-11-20T21:38:52.074Z,97140.31
2022-11-20T21:41:19.217Z,97144.53
2022-11-20T21:43:51.543Z,97123.31
2022-11-20T21:46:26.643Z,97131.56
2022-11-20T21:48:53.506Z,97126.91
2022-11-20T21:51:22.151Z,97104.91
2022-11-20T21:53:50.031Z,97105.47
2022-11-20T21:56:20.749Z,97123.34
2022-11-20T21:58:49.053Z,97124.94
2022-11-20T22:01:17.385Z,97123.19
2022-11-20T22:03:49.301Z,97119.00
2022-11-20T22:06:17.462Z,97112.41
2022-11-20T22:08:45.100Z,97107.19
2022-11-20T22:11:14.404Z,97122.34
2022-11-20T22:14:00.477Z,97119.72
2022-11-20T22:16:43.600Z,97123.19
2022-11-20T22:19:10.424Z,97111.78
2022-11-20T22:21:39.665Z,97118.22
2022-11-20T22:24:06.437Z,97115.63
2022-11-20T22:26:39.975Z,97112.66
2022-11-20T22:29:08.138Z,97106.19
2022-11-20T22:31:38.246Z,97090.13
2022-11-20T22:34:04.933Z,97109.09
2022-11-20T22:36:32.137Z,97104.88
2022-11-20T22:39:02.219Z,97106.66
2022-11-20T22:41:29.880Z,97102.13
2022-11-20T22:43:58.735Z,97093.38
2022-11-20T22:46:27.406Z,97093.13
2022-11-20T22:48:59.586Z,97086.84
2022-11-20T22:51:35.260Z,97076.06
2022-11-20T22:54:03.600Z,97075.13
2022-11-20T22:56:31.099Z,97074.66
2022-11-20T22:58:58.184Z,97069.75
2022-11-20T23:01:30.929Z,97056.75
2022-11-20T23:04:01.868Z,97063.66
2022-11-20T23:06:29.737Z,97061.44
2022-11-20T23:08:56.619Z,97059.38
2022-11-20T23:11:25.583Z,97063.66
2022-11-20T23:13:56.045Z,97055.56
2022-11-20T23:16:23.355Z,97063.28
2022-11-20T23:18:55.565Z,97064.78
2022-11-20T23:21:22.741Z,97064.44
2022-11-20T23:23:51.917Z,97067.59
2022-11-20T23:26:20.661Z,97072.03
2022-11-20T23:28:47.469Z,97065.50
2022-11-20T23:31:15.676Z,97059.31
2022-11-20T23:33:45.169Z,97064.34
2022-11-20T23:36:13.209Z,97053.06
2022-11-20T23:38:40.523Z,97055.63
2022-11-20T23:41:07.545Z,97053.19
2022-11-20T23:43:34.635Z,97041.28
2022-11-20T23:46:02.142Z,97039.22
2022-11-20T23:48:32.038Z,97045.06
2022-11-20T23:50:59.270Z,97037.53
2022-11-20T23:53:28.262Z,97034.03
2022-11-20T23:55:58.570Z,97040.91
2022-11-20T23:58:30.247Z,97021.94
